sensor_id;sensor_type;location;lat;lon;timestamp;P1;durP1;ratioP1;P2;durP2;ratioP2
74900;SDS011;63461;51.416;6.758;2023-11-21T00:02:17;19.43;;;8.93;;
74900;SDS011;63461;51.416;6.758;2023-11-21T00:04:43;21.37;;;9.33;;
74900;SDS011;63461;51.416;6.758;2023-11-21T00:07:09;19.03;;;8.63;;
74900;SDS011;63461;51.416;6.758;2023-11-21T00:09:35;22.70;;;8.10;;
74900;SDS011;63461;51.416;6.758;2023-11-21T00:12:05;24.70;;;8.00;;
74900;SDS011;63461;51.416;6.758;2023-11-21T00:14:47;26.13;;;8.47;;
74900;SDS011;63461;51.416;6.758;2023-11-21T00:17:24;27.23;;;8.90;;
74900;SDS011;63461;51.416;6.758;2023-11-21T00:19:50;23.63;;;8.90;;
74900;SDS011;63461;51.416;6.758;2023-11-21T00:22:25;26.67;;;9.20;;
74900;SDS011;63461;51.416;6.758;2023-11-21T00:24:53;25.00;;;8.63;;
74900;SDS011;63461;51.416;6.758;2023-11-21T00:27:24;21.23;;;9.13;;
74900;SDS011;63461;51.416;6.758;2023-11-21T00:29:54;27.23;;;9.13;;
74900;SDS011;63461;51.416;6.758;2023-11-21T00:32:25;27.20;;;9.67;;
74900;SDS011;63461;51.416;6.758;2023-11-21T00:34:59;28.83;;;9.87;;
74900;SDS011;63461;51.416;6.758;2023-11-21T00:37:28;22.57;;;8.97;;
74900;SDS011;63461;51.416;6.758;2023-11-21T00:40:12;25.87;;;9.93;;
74900;SDS011;63461;51.416;6.758;2023-11-21T00:42:54;25.50;;;9.87;;
74900;SDS011;63461;51.416;6.758;2023-11-21T00:45:21;25.30;;;9.70;;
74900;SDS011;63461;51.416;6.758;2023-11-21T00:47:59;25.70;;;10.27;;
74900;SDS011;63461;51.416;6.758;2023-11-21T00:50:28;22.80;;;9.33;;
74900;SDS011;63461;51.416;6.758;2023-11-21T00:52:57;26.87;;;10.23;;
74900;SDS011;63461;51.416;6.758;2023-11-21T00:58:26;29.53;;;10.00;;
74900;SDS011;63461;51.416;6.758;2023-11-21T01:01:34;23.33;;;9.80;;
74900;SDS011;63461;51.416;6.758;2023-11-21T01:10:43;19.33;;;9.13;;
74900;SDS011;63461;51.416;6.758;2023-11-21T01:14:27;28.47;;;9.83;;
74900;SDS011;63461;51.416;6.758;2023-11-21T01:21:07;30.77;;;9.47;;
74900;SDS011;63461;51.416;6.758;2023-11-21T01:23:36;24.30;;;9.73;;
74900;SDS011;63461;51.416;6.758;2023-11-21T01:26:05;27.73;;;9.87;;
74900;SDS011;63461;51.416;6.758;2023-11-21T01:28:35;28.80;;;10.20;;
74900;SDS011;63461;51.416;6.758;2023-11-21T01:31:04;25.20;;;9.73;;
74900;SDS011;63461;51.416;6.758;2023-11-21T01:33:30;26.47;;;10.10;;
74900;SDS011;63461;51.416;6.758;2023-11-21T01:35:55;24.33;;;9.53;;
74900;SDS011;63461;51.416;6.758;2023-11-21T01:38:22;22.10;;;9.27;;
74900;SDS011;63461;51.416;6.758;2023-11-21T01:40:48;21.67;;;9.40;;
74900;SDS011;63461;51.416;6.758;2023-11-21T01:43:14;21.97;;;9.00;;
74900;SDS011;63461;51.416;6.758;2023-11-21T01:45:40;26.30;;;9.40;;
74900;SDS011;63461;51.416;6.758;2023-11-21T01:48:06;23.07;;;9.00;;
74900;SDS011;63461;51.416;6.758;2023-11-21T01:50:34;25.20;;;8.90;;
74900;SDS011;63461;51.416;6.758;2023-11-21T01:53:00;22.67;;;8.73;;
74900;SDS011;63461;51.416;6.758;2023-11-21T01:55:31;24.80;;;9.70;;
74900;SDS011;63461;51.416;6.758;2023-11-21T01:58:04;21.77;;;9.63;;
74900;SDS011;63461;51.416;6.758;2023-11-21T02:00:30;23.23;;;9.20;;
74900;SDS011;63461;51.416;6.758;2023-11-21T02:02:58;19.60;;;9.23;;
74900;SDS011;63461;51.416;6.758;2023-11-21T02:05:24;21.17;;;8.43;;
74900;SDS011;63461;51.416;6.758;2023-11-21T02:07:58;24.37;;;8.87;;
74900;SDS011;63461;51.416;6.758;2023-11-21T02:10:24;22.43;;;8.00;;
74900;SDS011;63461;51.416;6.758;2023-11-21T02:12:51;19.67;;;8.03;;
74900;SDS011;63461;51.416;6.758;2023-11-21T02:15:17;18.67;;;8.43;;
74900;SDS011;63461;51.416;6.758;2023-11-21T02:17:48;22.83;;;8.80;;
74900;SDS011;63461;51.416;6.758;2023-11-21T02:20:19;21.50;;;8.83;;
74900;SDS011;63461;51.416;6.758;2023-11-21T02:22:51;18.57;;;8.77;;
74900;SDS011;63461;51.416;6.758;2023-11-21T02:25:30;22.87;;;8.77;;
74900;SDS011;63461;51.416;6.758;2023-11-21T02:28:00;31.90;;;9.53;;
74900;SDS011;63461;51.416;6.758;2023-11-21T02:30:29;25.60;;;9.63;;
74900;SDS011;63461;51.416;6.758;2023-11-21T02:32:57;21.67;;;9.47;;
74900;SDS011;63461;51.416;6.758;2023-11-21T02:35:25;18.73;;;8.93;;
74900;SDS011;63461;51.416;6.758;2023-11-21T02:37:54;24.10;;;9.40;;
74900;SDS011;63461;51.416;6.758;2023-11-21T02:40:20;22.50;;;9.00;;
74900;SDS011;63461;51.416;6.758;2023-11-21T02:42:46;21.13;;;8.90;;
74900;SDS011;63461;51.416;6.758;2023-11-21T02:45:15;20.77;;;9.50;;
74900;SDS011;63461;51.416;6.758;2023-11-21T02:47:58;21.73;;;9.70;;
74900;SDS011;63461;51.416;6.758;2023-11-21T02:50:53;27.67;;;9.90;;
74900;SDS011;63461;51.416;6.758;2023-11-21T02:53:30;22.27;;;8.83;;
74900;SDS011;63461;51.416;6.758;2023-11-21T02:56:03;20.80;;;9.53;;
74900;SDS011;63461;51.416;6.758;2023-11-21T02:58:34;24.80;;;9.40;;
74900;SDS011;63461;51.416;6.758;2023-11-21T03:01:04;26.67;;;10.00;;
74900;SDS011;63461;51.416;6.758;2023-11-21T03:03:31;25.23;;;9.80;;
74900;SDS011;63461;51.416;6.758;2023-11-21T03:06:10;29.13;;;10.37;;
74900;SDS011;63461;51.416;6.758;2023-11-21T03:08:39;24.30;;;10.57;;
74900;SDS011;63461;51.416;6.758;2023-11-21T03:11:10;26.33;;;10.67;;
74900;SDS011;63461;51.416;6.758;2023-11-21T03:13:39;26.50;;;10.67;;
74900;SDS011;63461;51.416;6.758;2023-11-21T03:16:18;25.00;;;10.80;;
74900;SDS011;63461;51.416;6.758;2023-11-21T03:22:44;31.43;;;11.53;;
74900;SDS011;63461;51.416;6.758;2023-11-21T03:25:10;28.40;;;12.03;;
74900;SDS011;63461;51.416;6.758;2023-11-21T03:27:36;28.27;;;11.90;;
74900;SDS011;63461;51.416;6.758;2023-11-21T03:30:04;33.87;;;12.03;;
74900;SDS011;63461;51.416;6.758;2023-11-21T03:32:33;32.77;;;12.47;;
74900;SDS011;63461;51.416;6.758;2023-11-21T03:34:59;32.00;;;12.37;;
74900;SDS011;63461;51.416;6.758;2023-11-21T03:37:28;30.30;;;12.00;;
74900;SDS011;63461;51.416;6.758;2023-11-21T03:39:54;28.27;;;12.77;;
74900;SDS011;63461;51.416;6.758;2023-11-21T03:42:33;31.60;;;12.53;;
74900;SDS011;63461;51.416;6.758;2023-11-21T03:45:04;31.83;;;12.97;;
74900;SDS011;63461;51.416;6.758;2023-11-21T03:47:39;38.93;;;12.87;;
74900;SDS011;63461;51.416;6.758;2023-11-21T03:50:11;28.47;;;12.30;;
74900;SDS011;63461;51.416;6.758;2023-11-21T03:52:43;35.80;;;13.00;;
74900;SDS011;63461;51.416;6.758;2023-11-21T03:55:27;34.07;;;13.77;;
74900;SDS011;63461;51.416;6.758;2023-11-21T03:58:00;32.10;;;13.40;;
74900;SDS011;63461;51.416;6.758;2023-11-21T04:00:32;37.20;;;13.47;;
74900;SDS011;63461;51.416;6.758;2023-11-21T04:02:59;32.37;;;13.93;;
74900;SDS011;63461;51.416;6.758;2023-11-21T04:08:22;36.07;;;13.90;;
74900;SDS011;63461;51.416;6.758;2023-11-21T04:14:53;33.77;;;12.77;;
74900;SDS011;63461;51.416;6.758;2023-11-21T04:17:48;31.43;;;13.57;;
74900;SDS011;63461;51.416;6.758;2023-11-21T04:20:43;34.07;;;12.83;;
74900;SDS011;63461;51.416;6.758;2023-11-21T04:23:21;32.73;;;12.57;;
74900;SDS011;63461;51.416;6.758;2023-11-21T04:25:59;33.87;;;13.40;;
74900;SDS011;63461;51.416;6.758;2023-11-21T04:29:19;31.20;;;11.87;;
74900;SDS011;63461;51.416;6.758;2023-11-21T04:31:53;28.13;;;12.13;;
74900;SDS011;63461;51.416;6.758;2023-11-21T04:37:53;26.93;;;11.57;;
74900;SDS011;63461;51.416;6.758;2023-11-21T04:40:25;30.73;;;11.53;;
74900;SDS011;63461;51.416;6.758;2023-11-21T04:42:59;28.63;;;11.90;;
74900;SDS011;63461;51.416;6.758;2023-11-21T04:45:26;35.10;;;11.97;;
74900;SDS011;63461;51.416;6.758;2023-11-21T04:48:46;26.83;;;11.27;;
74900;SDS011;63461;51.416;6.758;2023-11-21T04:55:17;24.10;;;10.73;;
74900;SDS011;63461;51.416;6.758;2023-11-21T04:59:12;30.63;;;10.87;;
74900;SDS011;63461;51.416;6.758;2023-11-21T05:02:40;26.40;;;9.87;;
74900;SDS011;63461;51.416;6.758;2023-11-21T05:05:14;27.13;;;10.47;;
74900;SDS011;63461;51.416;6.758;2023-11-21T05:07:41;22.83;;;10.73;;
74900;SDS011;63461;51.416;6.758;2023-11-21T05:10:10;26.07;;;10.53;;
74900;SDS011;63461;51.416;6.758;2023-11-21T05:12:42;30.53;;;11.70;;
74900;SDS011;63461;51.416;6.758;2023-11-21T05:15:08;27.73;;;11.30;;
74900;SDS011;63461;51.416;6.758;2023-11-21T05:17:38;40.10;;;12.87;;
74900;SDS011;63461;51.416;6.758;2023-11-21T05:20:13;32.67;;;12.00;;
74900;SDS011;63461;51.416;6.758;2023-11-21T05:22:43;29.73;;;12.20;;
74900;SDS011;63461;51.416;6.758;2023-11-21T05:25:09;33.93;;;12.33;;
74900;SDS011;63461;51.416;6.758;2023-11-21T05:27:36;38.33;;;14.10;;
74900;SDS011;63461;51.416;6.758;2023-11-21T05:30:02;38.03;;;13.57;;
74900;SDS011;63461;51.416;6.758;2023-11-21T05:32:37;33.40;;;13.33;;
74900;SDS011;63461;51.416;6.758;2023-11-21T05:35:04;40.73;;;13.83;;
74900;SDS011;63461;51.416;6.758;2023-11-21T05:37:43;38.57;;;13.13;;
74900;SDS011;63461;51.416;6.758;2023-11-21T05:40:14;43.43;;;15.17;;
74900;SDS011;63461;51.416;6.758;2023-11-21T05:42:40;38.57;;;14.30;;
74900;SDS011;63461;51.416;6.758;2023-11-21T05:45:13;47.47;;;16.23;;
74900;SDS011;63461;51.416;6.758;2023-11-21T05:47:51;48.53;;;15.37;;
74900;SDS011;63461;51.416;6.758;2023-11-21T05:50:17;43.13;;;16.67;;
74900;SDS011;63461;51.416;6.758;2023-11-21T05:52:46;42.77;;;15.60;;
74900;SDS011;63461;51.416;6.758;2023-11-21T05:55:16;44.83;;;16.03;;
74900;SDS011;63461;51.416;6.758;2023-11-21T05:57:56;49.23;;;16.10;;
74900;SDS011;63461;51.416;6.758;2023-11-21T06:00:30;48.90;;;18.57;;
74900;SDS011;63461;51.416;6.758;2023-11-21T06:02:57;47.20;;;17.13;;
74900;SDS011;63461;51.416;6.758;2023-11-21T06:05:24;56.07;;;19.23;;
74900;SDS011;63461;51.416;6.758;2023-11-21T06:07:56;49.03;;;17.40;;
74900;SDS011;63461;51.416;6.758;2023-11-21T06:10:27;51.70;;;17.33;;
74900;SDS011;63461;51.416;6.758;2023-11-21T06:14:02;43.73;;;16.00;;
74900;SDS011;63461;51.416;6.758;2023-11-21T06:30:57;50.67;;;17.90;;
74900;SDS011;63461;51.416;6.758;2023-11-21T06:34:20;53.47;;;17.47;;
74900;SDS011;63461;51.416;6.758;2023-11-21T06:37:27;55.03;;;17.40;;
74900;SDS011;63461;51.416;6.758;2023-11-21T06:40:04;55.40;;;18.93;;
74900;SDS011;63461;51.416;6.758;2023-11-21T06:46:09;55.20;;;17.93;;
74900;SDS011;63461;51.416;6.758;2023-11-21T06:53:11;49.50;;;17.40;;
74900;SDS011;63461;51.416;6.758;2023-11-21T06:55:45;48.33;;;16.93;;
74900;SDS011;63461;51.416;6.758;2023-11-21T06:59:00;51.60;;;17.90;;
74900;SDS011;63461;51.416;6.758;2023-11-21T07:02:14;51.50;;;18.10;;
74900;SDS011;63461;51.416;6.758;2023-11-21T07:04:44;54.50;;;18.40;;
74900;SDS011;63461;51.416;6.758;2023-11-21T07:07:11;54.07;;;17.43;;
74900;SDS011;63461;51.416;6.758;2023-11-21T07:09:38;54.83;;;18.07;;
74900;SDS011;63461;51.416;6.758;2023-11-21T07:12:05;53.77;;;18.73;;
74900;SDS011;63461;51.416;6.758;2023-11-21T07:14:36;54.20;;;19.57;;
74900;SDS011;63461;51.416;6.758;2023-11-21T07:17:07;55.67;;;19.90;;
74900;SDS011;63461;51.416;6.758;2023-11-21T07:19:37;59.27;;;18.80;;
74900;SDS011;63461;51.416;6.758;2023-11-21T07:22:03;59.00;;;19.83;;
74900;SDS011;63461;51.416;6.758;2023-11-21T07:24:33;64.87;;;19.77;;
74900;SDS011;63461;51.416;6.758;2023-11-21T07:27:05;57.50;;;19.03;;
74900;SDS011;63461;51.416;6.758;2023-11-21T07:29:37;62.10;;;19.77;;
74900;SDS011;63461;51.416;6.758;2023-11-21T07:32:05;71.60;;;20.40;;
74900;SDS011;63461;51.416;6.758;2023-11-21T07:34:31;63.33;;;20.43;;
74900;SDS011;63461;51.416;6.758;2023-11-21T07:36:57;63.87;;;21.43;;
74900;SDS011;63461;51.416;6.758;2023-11-21T07:39:22;65.17;;;19.60;;
74900;SDS011;63461;51.416;6.758;2023-11-21T07:41:48;57.17;;;19.50;;
74900;SDS011;63461;51.416;6.758;2023-11-21T07:44:15;61.13;;;19.57;;
74900;SDS011;63461;51.416;6.758;2023-11-21T07:46:46;57.97;;;19.50;;
74900;SDS011;63461;51.416;6.758;2023-11-21T07:56:10;58.33;;;19.77;;
74900;SDS011;63461;51.416;6.758;2023-11-21T07:58:40;57.03;;;19.80;;
74900;SDS011;63461;51.416;6.758;2023-11-21T08:01:09;65.83;;;19.00;;
74900;SDS011;63461;51.416;6.758;2023-11-21T08:06:32;56.63;;;19.57;;
74900;SDS011;63461;51.416;6.758;2023-11-21T08:08:58;61.60;;;19.20;;
74900;SDS011;63461;51.416;6.758;2023-11-21T08:11:24;53.37;;;18.97;;
74900;SDS011;63461;51.416;6.758;2023-11-21T08:14:08;59.27;;;19.20;;
74900;SDS011;63461;51.416;6.758;2023-11-21T08:16:34;54.63;;;19.07;;
74900;SDS011;63461;51.416;6.758;2023-11-21T08:19:03;50.23;;;18.43;;
74900;SDS011;63461;51.416;6.758;2023-11-21T08:21:29;51.20;;;19.07;;
74900;SDS011;63461;51.416;6.758;2023-11-21T08:23:55;60.10;;;19.10;;
74900;SDS011;63461;51.416;6.758;2023-11-21T08:26:21;62.60;;;19.97;;
74900;SDS011;63461;51.416;6.758;2023-11-21T08:28:48;66.90;;;20.30;;
74900;SDS011;63461;51.416;6.758;2023-11-21T08:31:16;65.37;;;21.33;;
74900;SDS011;63461;51.416;6.758;2023-11-21T08:33:42;65.63;;;19.67;;
74900;SDS011;63461;51.416;6.758;2023-11-21T08:36:09;59.83;;;20.27;;
74900;SDS011;63461;51.416;6.758;2023-11-21T08:38:44;62.57;;;20.77;;
74900;SDS011;63461;51.416;6.758;2023-11-21T08:41:10;58.40;;;19.73;;
74900;SDS011;63461;51.416;6.758;2023-11-21T08:43:45;70.33;;;21.47;;
74900;SDS011;63461;51.416;6.758;2023-11-21T08:46:13;64.43;;;21.20;;
74900;SDS011;63461;51.416;6.758;2023-11-21T08:48:40;62.90;;;20.37;;
74900;SDS011;63461;51.416;6.758;2023-11-21T08:51:14;64.10;;;20.00;;
74900;SDS011;63461;51.416;6.758;2023-11-21T08:53:41;61.10;;;21.13;;
74900;SDS011;63461;51.416;6.758;2023-11-21T08:56:12;57.77;;;19.43;;
74900;SDS011;63461;51.416;6.758;2023-11-21T08:58:51;55.67;;;19.57;;
74900;SDS011;63461;51.416;6.758;2023-11-21T09:01:23;59.23;;;20.30;;
74900;SDS011;63461;51.416;6.758;2023-11-21T09:03:50;55.63;;;19.40;;
74900;SDS011;63461;51.416;6.758;2023-11-21T09:06:16;64.90;;;20.97;;
74900;SDS011;63461;51.416;6.758;2023-11-21T09:08:42;58.87;;;20.77;;
74900;SDS011;63461;51.416;6.758;2023-11-21T09:11:14;62.50;;;20.43;;
74900;SDS011;63461;51.416;6.758;2023-11-21T09:13:43;58.10;;;19.70;;
74900;SDS011;63461;51.416;6.758;2023-11-21T09:16:19;57.00;;;20.27;;
74900;SDS011;63461;51.416;6.758;2023-11-21T09:18:58;58.87;;;20.67;;
74900;SDS011;63461;51.416;6.758;2023-11-21T09:21:33;67.27;;;19.70;;
74900;SDS011;63461;51.416;6.758;2023-11-21T09:24:29;67.10;;;20.70;;
74900;SDS011;63461;51.416;6.758;2023-11-21T09:28:18;60.53;;;19.80;;
74900;SDS011;63461;51.416;6.758;2023-11-21T09:30:48;54.47;;;18.93;;
74900;SDS011;63461;51.416;6.758;2023-11-21T09:36:39;61.47;;;20.20;;
74900;SDS011;63461;51.416;6.758;2023-11-21T09:39:15;62.77;;;20.03;;
74900;SDS011;63461;51.416;6.758;2023-11-21T09:47:55;53.40;;;17.47;;
74900;SDS011;63461;51.416;6.758;2023-11-21T09:50:30;53.00;;;17.13;;
74900;SDS011;63461;51.416;6.758;2023-11-21T09:53:19;49.17;;;18.17;;
74900;SDS011;63461;51.416;6.758;2023-11-21T09:55:47;53.20;;;18.50;;
74900;SDS011;63461;51.416;6.758;2023-11-21T09:58:25;52.27;;;19.57;;
74900;SDS011;63461;51.416;6.758;2023-11-21T10:01:20;53.97;;;17.57;;
74900;SDS011;63461;51.416;6.758;2023-11-21T10:03:48;62.83;;;19.87;;
74900;SDS011;63461;51.416;6.758;2023-11-21T10:06:14;57.33;;;19.67;;
74900;SDS011;63461;51.416;6.758;2023-11-21T10:08:42;55.73;;;19.60;;
74900;SDS011;63461;51.416;6.758;2023-11-21T10:11:09;54.83;;;19.33;;
74900;SDS011;63461;51.416;6.758;2023-11-21T10:13:37;47.67;;;18.97;;
74900;SDS011;63461;51.416;6.758;2023-11-21T10:16:05;62.43;;;22.00;;
74900;SDS011;63461;51.416;6.758;2023-11-21T10:18:37;65.20;;;22.07;;
74900;SDS011;63461;51.416;6.758;2023-11-21T10:21:06;65.17;;;22.83;;
74900;SDS011;63461;51.416;6.758;2023-11-21T10:23:34;65.03;;;21.87;;
74900;SDS011;63461;51.416;6.758;2023-11-21T10:26:00;71.87;;;24.10;;
74900;SDS011;63461;51.416;6.758;2023-11-21T10:28:26;82.93;;;26.10;;
74900;SDS011;63461;51.416;6.758;2023-11-21T10:30:52;71.93;;;24.33;;
74900;SDS011;63461;51.416;6.758;2023-11-21T10:33:18;70.57;;;23.87;;
74900;SDS011;63461;51.416;6.758;2023-11-21T10:35:54;63.60;;;21.23;;
74900;SDS011;63461;51.416;6.758;2023-11-21T10:38:21;62.97;;;22.60;;
74900;SDS011;63461;51.416;6.758;2023-11-21T10:40:49;64.73;;;21.93;;
74900;SDS011;63461;51.416;6.758;2023-11-21T10:43:26;60.87;;;21.23;;
74900;SDS011;63461;51.416;6.758;2023-11-21T10:45:52;59.30;;;23.07;;
74900;SDS011;63461;51.416;6.758;2023-11-21T10:48:22;64.20;;;21.70;;
74900;SDS011;63461;51.416;6.758;2023-11-21T10:50:48;66.03;;;23.63;;
74900;SDS011;63461;51.416;6.758;2023-11-21T10:53:14;63.20;;;22.37;;
74900;SDS011;63461;51.416;6.758;2023-11-21T10:55:44;62.83;;;22.97;;
74900;SDS011;63461;51.416;6.758;2023-11-21T10:58:10;65.63;;;21.80;;
74900;SDS011;63461;51.416;6.758;2023-11-21T11:00:38;64.67;;;23.57;;
74900;SDS011;63461;51.416;6.758;2023-11-21T11:03:10;62.43;;;22.20;;
74900;SDS011;63461;51.416;6.758;2023-11-21T11:05:39;60.10;;;23.07;;
74900;SDS011;63461;51.416;6.758;2023-11-21T11:08:08;65.63;;;23.47;;
74900;SDS011;63461;51.416;6.758;2023-11-21T11:10:37;63.57;;;25.00;;
74900;SDS011;63461;51.416;6.758;2023-11-21T11:13:03;62.93;;;23.20;;
74900;SDS011;63461;51.416;6.758;2023-11-21T11:15:32;63.80;;;23.97;;
74900;SDS011;63461;51.416;6.758;2023-11-21T11:18:01;63.33;;;25.13;;
74900;SDS011;63461;51.416;6.758;2023-11-21T11:20:31;67.37;;;25.40;;
74900;SDS011;63461;51.416;6.758;2023-11-21T11:29:06;67.77;;;25.43;;
74900;SDS011;63461;51.416;6.758;2023-11-21T11:34:48;77.47;;;27.33;;
74900;SDS011;63461;51.416;6.758;2023-11-21T11:37:24;62.97;;;24.60;;
74900;SDS011;63461;51.416;6.758;2023-11-21T11:39:50;66.97;;;24.60;;
74900;SDS011;63461;51.416;6.758;2023-11-21T11:42:19;71.27;;;27.30;;
74900;SDS011;63461;51.416;6.758;2023-11-21T11:44:48;96.40;;;32.07;;
74900;SDS011;63461;51.416;6.758;2023-11-21T11:50:08;113.03;;;37.03;;
74900;SDS011;63461;51.416;6.758;2023-11-21T11:52:43;126.75;;;45.35;;
74900;SDS011;63461;51.416;6.758;2023-11-21T11:55:10;122.77;;;39.77;;
74900;SDS011;63461;51.416;6.758;2023-11-21T11:57:42;108.83;;;37.27;;
74900;SDS011;63461;51.416;6.758;2023-11-21T12:02:54;107.50;;;34.67;;
74900;SDS011;63461;51.416;6.758;2023-11-21T12:05:24;125.87;;;38.63;;
74900;SDS011;63461;51.416;6.758;2023-11-21T12:07:55;109.73;;;36.97;;
74900;SDS011;63461;51.416;6.758;2023-11-21T12:10:26;91.67;;;32.00;;
74900;SDS011;63461;51.416;6.758;2023-11-21T12:12:54;119.70;;;36.70;;
74900;SDS011;63461;51.416;6.758;2023-11-21T12:15:22;77.67;;;28.73;;
74900;SDS011;63461;51.416;6.758;2023-11-21T12:17:50;103.97;;;33.20;;
74900;SDS011;63461;51.416;6.758;2023-11-21T12:20:20;76.97;;;30.17;;
74900;SDS011;63461;51.416;6.758;2023-11-21T12:22:50;85.33;;;30.90;;
74900;SDS011;63461;51.416;6.758;2023-11-21T12:25:23;87.10;;;31.13;;
74900;SDS011;63461;51.416;6.758;2023-11-21T12:27:53;92.33;;;30.87;;
74900;SDS011;63461;51.416;6.758;2023-11-21T12:30:20;89.13;;;30.70;;
74900;SDS011;63461;51.416;6.758;2023-11-21T12:32:48;122.30;;;50.23;;
74900;SDS011;63461;51.416;6.758;2023-11-21T12:35:25;96.00;;;35.70;;
74900;SDS011;63461;51.416;6.758;2023-11-21T12:37:52;82.90;;;30.47;;
74900;SDS011;63461;51.416;6.758;2023-11-21T12:40:20;85.37;;;31.40;;
74900;SDS011;63461;51.416;6.758;2023-11-21T12:42:48;96.77;;;33.47;;
74900;SDS011;63461;51.416;6.758;2023-11-21T12:47:51;96.17;;;32.80;;
74900;SDS011;63461;51.416;6.758;2023-11-21T12:50:26;102.90;;;34.17;;
74900;SDS011;63461;51.416;6.758;2023-11-21T12:55:43;115.67;;;35.30;;
74900;SDS011;63461;51.416;6.758;2023-11-21T12:58:15;97.57;;;33.43;;
74900;SDS011;63461;51.416;6.758;2023-11-21T13:00:47;100.27;;;32.50;;
74900;SDS011;63461;51.416;6.758;2023-11-21T13:03:15;85.50;;;30.30;;
74900;SDS011;63461;51.416;6.758;2023-11-21T13:05:43;86.30;;;29.77;;
74900;SDS011;63461;51.416;6.758;2023-11-21T13:08:10;77.03;;;26.27;;
74900;SDS011;63461;51.416;6.758;2023-11-21T13:10:42;83.33;;;30.97;;
74900;SDS011;63461;51.416;6.758;2023-11-21T13:13:12;88.90;;;28.47;;
74900;SDS011;63461;51.416;6.758;2023-11-21T13:15:49;51.00;;;20.17;;
74900;SDS011;63461;51.416;6.758;2023-11-21T13:18:25;44.37;;;18.30;;
74900;SDS011;63461;51.416;6.758;2023-11-21T13:20:57;55.83;;;19.83;;
74900;SDS011;63461;51.416;6.758;2023-11-21T13:23:24;39.70;;;15.73;;
74900;SDS011;63461;51.416;6.758;2023-11-21T13:25:51;46.43;;;17.43;;
74900;SDS011;63461;51.416;6.758;2023-11-21T13:28:18;34.53;;;14.50;;
74900;SDS011;63461;51.416;6.758;2023-11-21T13:30:46;29.33;;;10.57;;
74900;SDS011;63461;51.416;6.758;2023-11-21T13:33:13;21.70;;;9.87;;
74900;SDS011;63461;51.416;6.758;2023-11-21T13:35:46;21.50;;;8.90;;
74900;SDS011;63461;51.416;6.758;2023-11-21T13:38:14;14.80;;;7.10;;
74900;SDS011;63461;51.416;6.758;2023-11-21T13:40:46;17.17;;;7.13;;
74900;SDS011;63461;51.416;6.758;2023-11-21T13:43:17;18.33;;;7.20;;
74900;SDS011;63461;51.416;6.758;2023-11-21T13:45:46;21.37;;;8.57;;
74900;SDS011;63461;51.416;6.758;2023-11-21T13:48:13;17.27;;;7.90;;
74900;SDS011;63461;51.416;6.758;2023-11-21T13:50:39;19.53;;;8.20;;
74900;SDS011;63461;51.416;6.758;2023-11-21T13:53:13;22.13;;;10.47;;
74900;SDS011;63461;51.416;6.758;2023-11-21T13:55:52;14.87;;;7.57;;
74900;SDS011;63461;51.416;6.758;2023-11-21T13:58:20;17.80;;;8.30;;
74900;SDS011;63461;51.416;6.758;2023-11-21T14:00:57;20.50;;;9.60;;
74900;SDS011;63461;51.416;6.758;2023-11-21T14:03:23;18.97;;;9.10;;
74900;SDS011;63461;51.416;6.758;2023-11-21T14:05:57;17.03;;;8.07;;
74900;SDS011;63461;51.416;6.758;2023-11-21T14:08:26;17.87;;;8.17;;
74900;SDS011;63461;51.416;6.758;2023-11-21T14:10:57;22.23;;;9.43;;
74900;SDS011;63461;51.416;6.758;2023-11-21T14:13:25;20.03;;;8.63;;
74900;SDS011;63461;51.416;6.758;2023-11-21T14:15:53;19.57;;;8.90;;
74900;SDS011;63461;51.416;6.758;2023-11-21T14:18:27;22.77;;;9.37;;
74900;SDS011;63461;51.416;6.758;2023-11-21T14:21:01;23.00;;;10.13;;
74900;SDS011;63461;51.416;6.758;2023-11-21T14:23:27;20.57;;;8.97;;
74900;SDS011;63461;51.416;6.758;2023-11-21T14:25:55;17.10;;;8.00;;
74900;SDS011;63461;51.416;6.758;2023-11-21T14:28:21;22.43;;;9.77;;
74900;SDS011;63461;51.416;6.758;2023-11-21T14:30:48;23.37;;;10.03;;
74900;SDS011;63461;51.416;6.758;2023-11-21T14:33:13;22.20;;;9.57;;
74900;SDS011;63461;51.416;6.758;2023-11-21T14:35:42;19.20;;;9.20;;
74900;SDS011;63461;51.416;6.758;2023-11-21T14:38:08;22.80;;;10.00;;
74900;SDS011;63461;51.416;6.758;2023-11-21T14:40:35;23.20;;;10.20;;
74900;SDS011;63461;51.416;6.758;2023-11-21T14:43:04;21.20;;;9.07;;
74900;SDS011;63461;51.416;6.758;2023-11-21T14:45:33;23.03;;;10.63;;
74900;SDS011;63461;51.416;6.758;2023-11-21T14:48:00;21.90;;;9.70;;
74900;SDS011;63461;51.416;6.758;2023-11-21T14:50:41;23.30;;;10.27;;
74900;SDS011;63461;51.416;6.758;2023-11-21T14:53:11;17.03;;;7.17;;
74900;SDS011;63461;51.416;6.758;2023-11-21T14:55:39;22.13;;;10.03;;
74900;SDS011;63461;51.416;6.758;2023-11-21T14:58:15;18.87;;;8.10;;
74900;SDS011;63461;51.416;6.758;2023-11-21T15:00:50;21.53;;;9.00;;
74900;SDS011;63461;51.416;6.758;2023-11-21T15:03:22;22.77;;;9.57;;
74900;SDS011;63461;51.416;6.758;2023-11-21T15:06:00;23.07;;;10.53;;
74900;SDS011;63461;51.416;6.758;2023-11-21T15:08:48;19.10;;;8.97;;
74900;SDS011;63461;51.416;6.758;2023-11-21T15:11:21;19.23;;;8.90;;
74900;SDS011;63461;51.416;6.758;2023-11-21T15:13:53;21.07;;;8.60;;
74900;SDS011;63461;51.416;6.758;2023-11-21T15:16:19;18.13;;;8.40;;
74900;SDS011;63461;51.416;6.758;2023-11-21T15:18:45;17.07;;;8.47;;
74900;SDS011;63461;51.416;6.758;2023-11-21T15:21:11;16.47;;;7.93;;
74900;SDS011;63461;51.416;6.758;2023-11-21T15:23:37;20.80;;;8.60;;
74900;SDS011;63461;51.416;6.758;2023-11-21T15:26:04;19.67;;;8.70;;
74900;SDS011;63461;51.416;6.758;2023-11-21T15:28:30;20.33;;;8.20;;
74900;SDS011;63461;51.416;6.758;2023-11-21T15:30:57;18.20;;;7.90;;
74900;SDS011;63461;51.416;6.758;2023-11-21T15:33:23;17.03;;;7.57;;
74900;SDS011;63461;51.416;6.758;2023-11-21T15:35:52;16.60;;;7.60;;
74900;SDS011;63461;51.416;6.758;2023-11-21T15:38:19;19.70;;;7.43;;
74900;SDS011;63461;51.416;6.758;2023-11-21T15:40:46;18.17;;;7.40;;
74900;SDS011;63461;51.416;6.758;2023-11-21T15:43:12;17.43;;;7.67;;
74900;SDS011;63461;51.416;6.758;2023-11-21T15:45:38;12.97;;;5.77;;
74900;SDS011;63461;51.416;6.758;2023-11-21T15:48:05;14.03;;;6.37;;
74900;SDS011;63461;51.416;6.758;2023-11-21T15:50:31;13.40;;;5.47;;
74900;SDS011;63461;51.416;6.758;2023-11-21T15:52:57;14.27;;;6.60;;
74900;SDS011;63461;51.416;6.758;2023-11-21T15:55:24;14.27;;;6.77;;
74900;SDS011;63461;51.416;6.758;2023-11-21T15:57:50;13.83;;;6.70;;
74900;SDS011;63461;51.416;6.758;2023-11-21T16:00:16;14.63;;;6.90;;
74900;SDS011;63461;51.416;6.758;2023-11-21T16:02:45;12.70;;;5.30;;
74900;SDS011;63461;51.416;6.758;2023-11-21T16:05:11;16.23;;;7.10;;
74900;SDS011;63461;51.416;6.758;2023-11-21T16:07:44;13.30;;;5.77;;
74900;SDS011;63461;51.416;6.758;2023-11-21T16:10:10;15.00;;;7.30;;
74900;SDS011;63461;51.416;6.758;2023-11-21T16:12:36;13.97;;;7.43;;
74900;SDS011;63461;51.416;6.758;2023-11-21T16:15:05;11.67;;;5.17;;
74900;SDS011;63461;51.416;6.758;2023-11-21T16:17:35;16.57;;;7.43;;
74900;SDS011;63461;51.416;6.758;2023-11-21T16:20:02;17.57;;;8.03;;
74900;SDS011;63461;51.416;6.758;2023-11-21T16:22:36;20.10;;;8.07;;
74900;SDS011;63461;51.416;6.758;2023-11-21T16:25:03;19.87;;;9.00;;
74900;SDS011;63461;51.416;6.758;2023-11-21T16:27:30;16.13;;;7.67;;
74900;SDS011;63461;51.416;6.758;2023-11-21T16:29:56;17.93;;;9.17;;